createdAt,value
2018-08-24T00:00:15.625Z,21.17
2018-08-24T00:02:43.191Z,20.40
2018-08-24T00:05:10.729Z,19.50
2018-08-24T00:07:38.314Z,24.33
2018-08-24T00:10:05.920Z,21.00
2018-08-24T00:12:33.459Z,22.13
2018-08-24T00:15:00.945Z,20.80
2018-08-24T00:17:29.864Z,20.83
2018-08-24T00:19:57.627Z,20.53
2018-08-24T00:22:25.188Z,20.83
2018-08-24T00:24:52.756Z,21.07
2018-08-24T00:27:21.136Z,20.97
2018-08-24T00:29:48.665Z,21.87
2018-08-24T00:32:16.235Z,20.70
2018-08-24T00:34:43.828Z,21.03
2018-08-24T00:37:11.400Z,23.07
2018-08-24T00:39:41.466Z,35.20
2018-08-24T00:42:08.960Z,64.83
2018-08-24T00:44:36.618Z,79.80
2018-08-24T00:47:04.116Z,100.53
2018-08-24T00:49:31.628Z,65.63
2018-08-24T00:51:59.182Z,37.27
2018-08-24T00:54:27.546Z,27.90
2018-08-24T00:56:55.053Z,26.67
2018-08-24T00:59:22.562Z,22.10
2018-08-24T01:01:50.044Z,20.93
2018-08-24T01:04:23.142Z,20.10
2018-08-24T01:06:50.834Z,25.47
2018-08-24T01:09:18.370Z,40.47
2018-08-24T01:11:51.569Z,51.40
2018-08-24T01:14:19.184Z,60.60
2018-08-24T01:16:52.210Z,56.97
2018-08-24T01:19:19.767Z,47.10
2018-08-24T01:21:47.394Z,39.00
2018-08-24T01:24:15.364Z,38.53
2018-08-24T01:26:47.501Z,26.60
2018-08-24T01:29:15.146Z,29.73
2018-08-24T01:31:42.638Z,24.43
2018-08-24T01:34:10.140Z,20.03
2018-08-24T01:36:37.625Z,17.27
2018-08-24T01:39:06.436Z,18.90
2018-08-24T01:41:33.943Z,19.83
2018-08-24T01:44:01.466Z,15.70
2018-08-24T01:46:29.014Z,16.50
2018-08-24T01:48:56.480Z,16.20
2018-08-24T01:51:23.960Z,19.33
2018-08-24T01:53:51.431Z,20.33
2018-08-24T01:56:18.950Z,25.77
2018-08-24T01:58:46.470Z,25.53
2018-08-24T02:01:14.024Z,26.60
2018-08-24T02:03:41.534Z,24.23
2018-08-24T02:06:09.028Z,26.50
2018-08-24T02:08:37.282Z,21.17
2018-08-24T02:11:10.922Z,21.70
2018-08-24T02:13:45.670Z,15.90
2018-08-24T02:16:13.218Z,15.27
2018-08-24T02:18:46.252Z,13.93
2018-08-24T02:21:19.397Z,13.43
2018-08-24T02:23:46.906Z,13.60
2018-08-24T02:26:14.418Z,16.63
2018-08-24T02:28:41.918Z,21.90
2018-08-24T02:31:09.464Z,28.30
2018-08-24T02:33:37.676Z,31.30
2018-08-24T02:36:05.313Z,28.83
2018-08-24T02:38:32.852Z,27.50
2018-08-24T02:41:00.342Z,22.07
2018-08-24T02:43:27.900Z,22.20
2018-08-24T02:45:55.390Z,19.20
2018-08-24T02:48:22.918Z,22.07
2018-08-24T02:50:50.481Z,26.93
2018-08-24T02:53:18.002Z,25.43
2018-08-24T02:55:45.553Z,28.57
2018-08-24T02:58:13.053Z,30.43
2018-08-24T03:00:40.541Z,30.77
2018-08-24T03:03:08.043Z,19.67
2018-08-24T03:05:35.707Z,16.40
2018-08-24T03:08:03.141Z,16.73
2018-08-24T03:10:30.635Z,16.97
2018-08-24T03:12:58.159Z,14.57
2018-08-24T03:15:25.643Z,12.70
2018-08-24T03:17:53.831Z,10.87
2018-08-24T03:20:22.019Z,10.20
2018-08-24T03:22:49.526Z,9.83
2018-08-24T03:25:17.067Z,10.60
2018-08-24T03:27:44.588Z,9.60
2018-08-24T03:30:12.101Z,10.33
2018-08-24T03:32:39.655Z,10.53
2018-08-24T03:35:07.197Z,9.50
2018-08-24T03:37:34.717Z,9.90
2018-08-24T03:40:02.225Z,10.40
2018-08-24T03:42:29.727Z,10.50
2018-08-24T03:44:57.255Z,10.00
2018-08-24T03:47:24.761Z,10.20
2018-08-24T03:49:52.297Z,9.40
2018-08-24T03:52:19.851Z,10.40
2018-08-24T03:54:47.360Z,10.73
2018-08-24T03:57:14.865Z,11.37
2018-08-24T03:59:42.333Z,10.40
2018-08-24T04:02:11.355Z,8.77
2018-08-24T04:04:39.078Z,9.80
2018-08-24T04:07:06.649Z,11.07
2018-08-24T04:09:34.189Z,9.80
2018-08-24T04:12:01.685Z,8.90
2018-08-24T04:14:29.175Z,9.50
2018-08-24T04:17:02.354Z,9.03
2018-08-24T04:19:29.979Z,9.10
2018-08-24T04:21:57.811Z,10.40
2018-08-24T04:24:25.339Z,8.80
2018-08-24T04:26:53.574Z,9.50
2018-08-24T04:29:21.432Z,8.50
2018-08-24T04:31:48.962Z,8.60
2018-08-24T04:34:16.488Z,8.77
2018-08-24T04:36:43.998Z,7.87
2018-08-24T04:39:12.268Z,8.93
2018-08-24T04:41:40.467Z,8.23
2018-08-24T04:44:08.425Z,8.80
2018-08-24T04:46:36.007Z,8.83
2018-08-24T04:49:03.689Z,8.80
2018-08-24T04:51:31.428Z,8.53
2018-08-24T04:53:58.957Z,8.20
2018-08-24T04:56:26.867Z,9.37
2018-08-24T04:58:54.359Z,9.10
2018-08-24T05:01:21.873Z,7.53
2018-08-24T05:03:49.409Z,8.27
2018-08-24T05:06:16.987Z,6.83
2018-08-24T05:08:44.492Z,8.33
2018-08-24T05:11:12.029Z,7.47
2018-08-24T05:13:39.569Z,6.53
2018-08-24T05:16:07.072Z,7.70
2018-08-24T05:18:34.613Z,5.97
2018-08-24T05:21:02.264Z,7.90
2018-08-24T05:23:29.801Z,6.80
2018-08-24T05:25:57.362Z,7.50
2018-08-24T05:28:24.861Z,7.60
2018-08-24T05:30:52.391Z,7.00
2018-08-24T05:33:19.981Z,7.00
2018-08-24T05:35:47.489Z,6.83
2018-08-24T05:38:14.933Z,6.97
2018-08-24T05:40:42.467Z,9.10
2018-08-24T05:43:09.997Z,7.07
2018-08-24T05:45:37.483Z,9.13
2018-08-24T05:48:04.984Z,8.40
2018-08-24T05:50:32.557Z,8.90
2018-08-24T05:53:00.102Z,9.53
2018-08-24T05:55:27.662Z,14.83
2018-08-24T05:57:55.295Z,15.67
2018-08-24T06:00:28.494Z,13.47
2018-08-24T06:02:56.017Z,9.37
2018-08-24T06:05:23.643Z,9.20
2018-08-24T06:07:51.199Z,8.97
2018-08-24T06:10:19.062Z,7.57
2018-08-24T06:12:46.561Z,10.27
2018-08-24T06:15:14.086Z,8.70
2018-08-24T06:17:47.077Z,10.50
2018-08-24T06:20:14.587Z,11.47
2018-08-24T06:22:42.062Z,7.37
2018-08-24T06:25:09.666Z,10.63
2018-08-24T06:27:37.154Z,12.03
2018-08-24T06:30:05.341Z,17.23
2018-08-24T06:32:32.867Z,13.07
2018-08-24T06:35:00.408Z,13.50
2018-08-24T06:37:27.931Z,19.53
2018-08-24T06:39:55.532Z,17.20
2018-08-24T06:42:23.058Z,12.50
2018-08-24T06:44:50.645Z,10.50
2018-08-24T06:47:18.363Z,9.17
2018-08-24T06:49:45.902Z,9.60
2018-08-24T06:52:13.448Z,11.50
2018-08-24T06:54:41.162Z,17.23
2018-08-24T06:57:08.681Z,17.90
2018-08-24T06:59:36.199Z,16.57
2018-08-24T07:02:03.731Z,14.17
2018-08-24T07:04:31.225Z,10.00
2018-08-24T07:06:58.766Z,8.70
2018-08-24T07:09:26.347Z,7.90
2018-08-24T07:11:53.904Z,9.80
2018-08-24T07:14:21.473Z,7.50
2018-08-24T07:16:53.529Z,7.43
2018-08-24T07:19:21.025Z,7.00
2018-08-24T07:21:48.586Z,7.03
2018-08-24T07:24:16.101Z,6.83
2018-08-24T07:26:43.638Z,6.97
2018-08-24T07:29:11.113Z,6.77
2018-08-24T07:31:38.620Z,7.70
2018-08-24T07:34:06.156Z,6.87
2018-08-24T07:36:33.661Z,6.83
2018-08-24T07:39:01.230Z,6.20
2018-08-24T07:41:28.856Z,5.97
2018-08-24T07:43:56.408Z,6.00
2018-08-24T07:46:24.043Z,6.10
2018-08-24T07:48:51.549Z,6.60
2018-08-24T07:51:19.071Z,6.87
2018-08-24T07:53:46.647Z,7.03
2018-08-24T07:56:14.219Z,7.60
2018-08-24T07:58:41.809Z,6.50
2018-08-24T08:01:09.410Z,7.43
2018-08-24T08:03:36.973Z,6.27
2018-08-24T08:06:04.597Z,6.50
2018-08-24T08:08:32.202Z,6.70
2018-08-24T08:10:59.724Z,6.47
2018-08-24T08:13:27.271Z,7.00
2018-08-24T08:15:54.868Z,5.67
2018-08-24T08:18:22.392Z,6.40
2018-08-24T08:20:49.946Z,6.20
2018-08-24T08:23:17.519Z,6.93
2018-08-24T08:25:45.034Z,6.30
2018-08-24T08:28:12.630Z,8.07
2018-08-24T08:30:40.200Z,7.67
2018-08-24T08:33:07.812Z,6.27
2018-08-24T08:35:35.336Z,6.80
2018-08-24T08:38:02.942Z,6.87
2018-08-24T08:40:30.469Z,6.53
2018-08-24T08:42:57.978Z,5.67
2018-08-24T08:45:25.630Z,6.20
2018-08-24T08:47:53.092Z,5.73
2018-08-24T08:50:20.643Z,5.67
2018-08-24T08:52:48.155Z,5.80
2018-08-24T08:55:15.753Z,6.80
2018-08-24T08:57:43.266Z,6.40
2018-08-24T09:00:10.852Z,6.27
2018-08-24T09:02:38.413Z,10.23
2018-08-24T09:05:06.212Z,6.70
2018-08-24T09:07:33.799Z,6.73
2018-08-24T09:10:01.368Z,6.93
2018-08-24T09:12:28.913Z,6.93
2018-08-24T09:14:56.479Z,6.50
2018-08-24T09:19:35.123Z,6.83
2018-08-24T09:22:08.370Z,8.30
2018-08-24T09:24:41.413Z,8.73
2018-08-24T09:27:14.750Z,8.73
2018-08-24T09:29:42.300Z,8.30
2018-08-24T09:32:09.868Z,9.30
2018-08-24T09:34:37.474Z,9.20
2018-08-24T09:37:09.828Z,7.67
2018-08-24T09:39:37.469Z,7.60
2018-08-24T09:42:04.993Z,8.80
2018-08-24T09:44:32.524Z,8.00
2018-08-24T09:47:05.681Z,8.40
2018-08-24T09:49:35.283Z,8.60
2018-08-24T09:52:08.464Z,9.10
2018-08-24T09:54:35.976Z,8.83
2018-08-24T09:57:03.623Z,8.57
2018-08-24T09:59:31.166Z,8.70
2018-08-24T10:02:04.291Z,8.83
2018-08-24T10:04:37.517Z,9.50
2018-08-24T10:07:10.679Z,9.40
2018-08-24T10:09:38.396Z,10.20
2018-08-24T10:12:05.955Z,10.10
2018-08-24T10:14:33.525Z,12.93
2018-08-24T10:17:01.157Z,12.10
2018-08-24T10:19:28.783Z,12.10
2018-08-24T10:21:56.320Z,11.10
2018-08-24T10:24:23.847Z,11.03
2018-08-24T10:26:51.485Z,11.80
2018-08-24T10:29:19.062Z,10.73
2018-08-24T10:31:46.556Z,10.87
2018-08-24T10:34:14.091Z,9.17
2018-08-24T10:36:41.691Z,8.83
2018-08-24T10:39:10.320Z,8.33
2018-08-24T10:41:37.795Z,8.63
2018-08-24T10:44:05.561Z,8.50
2018-08-24T10:46:33.087Z,8.50
2018-08-24T10:49:00.869Z,7.80
2018-08-24T10:51:28.463Z,7.10
2018-08-24T10:53:55.994Z,7.33
2018-08-24T10:56:23.515Z,7.00
2018-08-24T10:58:51.051Z,7.53
2018-08-24T11:01:18.613Z,8.17
2018-08-24T11:03:46.175Z,7.40
2018-08-24T11:06:13.682Z,9.50
2018-08-24T11:08:41.236Z,11.40
2018-08-24T11:11:08.865Z,9.10
2018-08-24T11:13:36.478Z,11.57
2018-08-24T11:16:04.043Z,11.00
2018-08-24T11:18:31.606Z,14.17
2018-08-24T11:20:59.130Z,12.83
2018-08-24T11:23:27.505Z,15.23
2018-08-24T11:25:55.075Z,19.90
2018-08-24T11:28:22.573Z,10.83
2018-08-24T11:30:50.152Z,12.60
2018-08-24T11:33:17.726Z,12.10
2018-08-24T11:35:45.307Z,20.93
2018-08-24T11:38:13.084Z,11.60
2018-08-24T11:40:40.699Z,12.07
2018-08-24T11:43:08.357Z,12.17
2018-08-24T11:45:36.014Z,11.03
2018-08-24T11:48:03.786Z,9.83
2018-08-24T11:50:31.436Z,9.30
2018-08-24T11:52:59.029Z,11.00
2018-08-24T11:55:26.736Z,10.70
2018-08-24T11:57:54.282Z,9.87
2018-08-24T12:00:27.658Z,10.90
2018-08-24T12:02:55.272Z,12.10
2018-08-24T12:05:22.840Z,14.17
2018-08-24T12:07:50.514Z,13.73
2018-08-24T12:10:18.140Z,11.80
2018-08-24T12:12:45.720Z,11.43
2018-08-24T12:15:13.397Z,10.87
2018-08-24T12:17:41.069Z,11.67
2018-08-24T12:20:08.878Z,9.50
2018-08-24T12:22:36.486Z,10.00
2018-08-24T12:25:04.140Z,9.77
2018-08-24T12:27:31.738Z,10.60
2018-08-24T12:29:59.344Z,11.37
2018-08-24T12:32:26.982Z,12.27
2018-08-24T12:35:01.416Z,9.80
2018-08-24T12:37:31.613Z,11.03
2018-08-24T12:39:59.284Z,11.17
2018-08-24T12:42:26.887Z,10.80
2018-08-24T12:44:54.480Z,11.57
2018-08-24T12:47:22.197Z,11.90
2018-08-24T12:49:49.767Z,10.90
2018-08-24T12:52:17.373Z,9.00
2018-08-24T12:54:44.937Z,6.07
2018-08-24T12:57:12.507Z,4.17
2018-08-24T12:59:40.084Z,3.67
2018-08-24T13:02:07.681Z,2.60
2018-08-24T13:04:35.352Z,2.57
2018-08-24T13:07:02.883Z,2.90
2018-08-24T13:09:30.482Z,2.87
2018-08-24T13:11:58.023Z,2.57
2018-08-24T13:14:25.660Z,3.40
2018-08-24T13:16:53.222Z,2.50
2018-08-24T13:19:20.827Z,2.83
2018-08-24T13:21:48.353Z,4.07
2018-08-24T13:24:15.976Z,3.10
2018-08-24T13:26:43.590Z,3.47
2018-08-24T13:29:11.123Z,3.80
2018-08-24T13:31:38.698Z,4.87
2018-08-24T13:34:06.317Z,4.03
2018-08-24T13:36:33.895Z,4.80
2018-08-24T13:39:01.672Z,5.00
2018-08-24T13:41:29.208Z,4.50
2018-08-24T13:43:56.781Z,5.07
2018-08-24T13:46:24.369Z,6.67
2018-08-24T13:48:51.948Z,6.23
2018-08-24T13:51:19.616Z,5.60
2018-08-24T13:53:47.197Z,6.20
2018-08-24T13:56:14.993Z,5.83
2018-08-24T13:58:42.649Z,5.83
2018-08-24T14:01:11.203Z,5.07
2018-08-24T14:03:38.837Z,6.17
2018-08-24T14:06:06.552Z,5.13
2018-08-24T14:08:34.172Z,4.30
2018-08-24T14:11:01.800Z,4.40
2018-08-24T14:13:29.598Z,5.33
2018-08-24T14:15:57.169Z,5.37
2018-08-24T14:18:24.856Z,5.60
2018-08-24T14:20:52.481Z,7.50
2018-08-24T14:23:20.020Z,5.70
2018-08-24T14:25:47.608Z,4.77
2018-08-24T14:28:15.166Z,5.50
2018-08-24T14:30:42.734Z,5.23
2018-08-24T14:33:10.347Z,6.70
2018-08-24T14:35:37.884Z,6.37
2018-08-24T14:38:05.481Z,7.30
2018-08-24T14:40:33.088Z,5.73
2018-08-24T14:43:00.678Z,7.10
2018-08-24T14:45:28.232Z,6.10
2018-08-24T14:47:56.074Z,5.63
2018-08-24T14:50:23.907Z,7.50
2018-08-24T14:52:51.568Z,7.00
2018-08-24T14:55:19.157Z,6.37
2018-08-24T14:57:46.719Z,6.43
2018-08-24T15:00:14.325Z,7.07
2018-08-24T15:02:41.978Z,7.20
2018-08-24T15:05:10.831Z,5.80
2018-08-24T15:07:38.500Z,6.30
2018-08-24T15:10:06.561Z,6.20
2018-08-24T15:12:34.078Z,5.70
2018-08-24T15:15:01.730Z,6.93
2018-08-24T15:17:31.066Z,6.90
2018-08-24T15:19:58.966Z,7.03
2018-08-24T15:22:26.541Z,8.07
2018-08-24T15:24:54.141Z,8.97
2018-08-24T15:27:21.694Z,9.33
2018-08-24T15:29:49.304Z,9.17
2018-08-24T15:32:16.818Z,10.10
2018-08-24T15:34:44.358Z,9.83
2018-08-24T15:37:11.880Z,10.77
2018-08-24T15:39:39.421Z,9.90
2018-08-24T15:42:06.963Z,9.53
2018-08-24T15:44:34.529Z,12.10
2018-08-24T15:47:02.138Z,11.73
2018-08-24T15:49:29.765Z,12.90
2018-08-24T15:51:57.295Z,12.50
2018-08-24T15:54:24.930Z,10.80
2018-08-24T15:56:52.464Z,12.10
2018-08-24T15:59:20.040Z,12.33
2018-08-24T16:01:47.661Z,12.43
2018-08-24T16:04:15.237Z,12.73
2018-08-24T16:06:42.867Z,11.23
2018-08-24T16:09:10.998Z,10.87
2018-08-24T16:11:38.761Z,10.87
2018-08-24T16:14:06.393Z,10.90
2018-08-24T16:16:34.010Z,11.90
2018-08-24T16:19:01.528Z,10.70
2018-08-24T16:21:29.127Z,9.97
2018-08-24T16:23:56.704Z,11.67
2018-08-24T16:26:25.053Z,11.13
2018-08-24T16:28:53.062Z,9.43
2018-08-24T16:31:20.847Z,11.13
2018-08-24T16:33:48.515Z,10.47
2018-08-24T16:36:16.077Z,11.03
2018-08-24T16:38:43.719Z,10.47
2018-08-24T16:41:11.311Z,9.87
2018-08-24T16:43:38.911Z,10.23
2018-08-24T16:46:06.495Z,9.53
2018-08-24T16:48:34.261Z,9.30
2018-08-24T16:51:01.770Z,9.83
2018-08-24T16:53:29.527Z,10.60
2018-08-24T16:55:57.113Z,10.40
2018-08-24T16:58:24.765Z,10.57
2018-08-24T17:00:52.301Z,10.73
2018-08-24T17:03:19.882Z,10.90
2018-08-24T17:05:47.394Z,10.33
2018-08-24T17:08:14.928Z,10.87
2018-08-24T17:10:42.425Z,10.23
2018-08-24T17:13:09.939Z,11.47
2018-08-24T17:15:37.492Z,14.63
2018-08-24T17:18:05.631Z,10.50
2018-08-24T17:20:33.183Z,8.70
2018-08-24T17:23:00.767Z,9.47
2018-08-24T17:25:28.351Z,9.80
2018-08-24T17:27:55.938Z,10.60
2018-08-24T17:30:23.564Z,10.00
2018-08-24T17:32:51.138Z,10.70
2018-08-24T17:35:18.668Z,10.33
2018-08-24T17:37:46.303Z,12.23
2018-08-24T17:40:13.894Z,12.23
2018-08-24T17:42:41.463Z,8.17
2018-08-24T17:45:09.869Z,9.53
2018-08-24T17:47:37.652Z,9.60
2018-08-24T17:50:05.471Z,9.30
2018-08-24T17:52:33.050Z,9.00
2018-08-24T17:55:00.623Z,9.67
2018-08-24T17:57:28.183Z,9.37
2018-08-24T17:59:55.726Z,11.47
2018-08-24T18:02:23.366Z,9.40
2018-08-24T18:04:50.998Z,9.93
2018-08-24T18:07:18.605Z,9.37
2018-08-24T18:09:46.204Z,10.73
2018-08-24T18:12:13.941Z,9.23
2018-08-24T18:14:41.499Z,11.10
2018-08-24T18:17:09.048Z,9.03
2018-08-24T18:19:36.663Z,8.27
2018-08-24T18:22:04.248Z,11.30
2018-08-24T18:24:31.916Z,8.90
2018-08-24T18:26:59.448Z,9.80
2018-08-24T18:29:27.024Z,8.63
2018-08-24T18:31:54.542Z,9.60
2018-08-24T18:34:22.193Z,8.80
2018-08-24T18:36:49.752Z,8.13
2018-08-24T18:39:17.364Z,8.30
2018-08-24T18:41:45.013Z,9.37
2018-08-24T18:44:12.575Z,8.63
2018-08-24T18:46:40.158Z,8.77
2018-08-24T18:49:07.678Z,8.10
2018-08-24T18:51:35.200Z,9.50
2018-08-24T18:54:04.010Z,9.20
2018-08-24T18:56:31.755Z,8.47
2018-08-24T18:58:59.393Z,9.23
2018-08-24T19:01:26.960Z,7.93
2018-08-24T19:03:54.591Z,7.97
2018-08-24T19:06:22.274Z,8.47
2018-08-24T19:08:49.858Z,9.97
2018-08-24T19:11:22.893Z,7.90
2018-08-24T19:13:50.544Z,9.30
2018-08-24T19:16:18.207Z,8.80
2018-08-24T19:18:51.468Z,8.83
2018-08-24T19:21:24.643Z,8.20
2018-08-24T19:23:52.353Z,8.23
2018-08-24T19:26:19.953Z,8.20
2018-08-24T19:28:53.218Z,9.10
2018-08-24T19:31:20.765Z,8.37
2018-08-24T19:33:48.302Z,8.73
2018-08-24T19:36:15.912Z,9.43
2018-08-24T19:38:43.492Z,9.30
2018-08-24T19:41:16.848Z,9.77
2018-08-24T19:43:44.497Z,9.27
2018-08-24T19:46:12.013Z,9.20
2018-08-24T19:48:45.276Z,8.70
2018-08-24T19:51:12.856Z,10.03
2018-08-24T19:53:40.504Z,8.87
2018-08-24T19:56:08.676Z,9.03
2018-08-24T19:58:41.890Z,9.07
2018-08-24T20:01:09.469Z,10.63
2018-08-24T20:03:37.084Z,8.10
2018-08-24T20:06:10.400Z,9.33
2018-08-24T20:08:43.710Z,8.30
2018-08-24T20:11:11.311Z,9.97
2018-08-24T20:13:38.914Z,9.77
2018-08-24T20:16:12.172Z,11.50
2018-08-24T20:18:40.521Z,8.90
2018-08-24T20:21:08.173Z,9.70
2018-08-24T20:23:35.755Z,10.80
2018-08-24T20:26:03.334Z,11.40
2018-08-24T20:28:30.905Z,10.60
2018-08-24T20:30:58.468Z,9.30
2018-08-24T20:33:26.061Z,10.23
2018-08-24T20:35:53.644Z,10.47
2018-08-24T20:38:21.254Z,10.80
2018-08-24T20:40:48.834Z,13.43
2018-08-24T20:43:16.448Z,12.73
2018-08-24T20:45:44.016Z,10.53
2018-08-24T20:48:11.618Z,11.90
2018-08-24T20:50:39.181Z,11.67
2018-08-24T20:53:06.830Z,11.37
2018-08-24T20:55:35.487Z,11.13
2018-08-24T20:58:03.000Z,10.60
2018-08-24T21:00:30.596Z,14.10
2018-08-24T21:02:58.207Z,13.40
2018-08-24T21:05:25.783Z,10.23
2018-08-24T21:07:53.353Z,10.47
2018-08-24T21:10:20.998Z,11.93
2018-08-24T21:12:48.588Z,10.90
2018-08-24T21:15:16.190Z,11.80
2018-08-24T21:17:43.830Z,11.47
2018-08-24T21:20:11.494Z,16.10
2018-08-24T21:22:39.097Z,13.27
2018-08-24T21:25:07.086Z,17.00
2018-08-24T21:27:34.649Z,16.70
2018-08-24T21:30:02.260Z,18.70
2018-08-24T21:32:29.786Z,17.03
2018-08-24T21:34:57.310Z,16.50
2018-08-24T21:37:24.829Z,15.60
2018-08-24T21:39:52.399Z,14.93
2018-08-24T21:42:19.921Z,12.20
2018-08-24T21:44:47.517Z,13.90
2018-08-24T21:47:15.054Z,12.10
2018-08-24T21:49:42.618Z,13.13
2018-08-24T21:52:10.220Z,13.90
2018-08-24T21:54:37.803Z,13.63
2018-08-24T21:57:05.351Z,11.03
2018-08-24T21:59:32.902Z,14.10
2018-08-24T22:02:00.449Z,13.80
2018-08-24T22:04:28.098Z,12.07
2018-08-24T22:06:55.603Z,13.60
2018-08-24T22:09:23.183Z,20.47
2018-08-24T22:11:50.723Z,28.90
2018-08-24T22:14:18.289Z,19.17
2018-08-24T22:16:45.830Z,13.03
2018-08-24T22:19:13.351Z,13.57
2018-08-24T22:21:40.924Z,14.80
2018-08-24T22:24:08.669Z,15.73
2018-08-24T22:26:36.565Z,16.50
2018-08-24T22:29:04.311Z,14.80
2018-08-24T22:31:31.810Z,13.70
2018-08-24T22:33:59.354Z,17.27
2018-08-24T22:36:26.920Z,14.63
2018-08-24T22:38:54.477Z,16.60
2018-08-24T22:41:22.085Z,19.57
2018-08-24T22:43:49.584Z,16.37
2018-08-24T22:46:17.114Z,15.27
2018-08-24T22:48:44.647Z,12.20
2018-08-24T22:51:12.162Z,11.73
2018-08-24T22:53:39.695Z,13.23
2018-08-24T22:56:07.235Z,11.10
2018-08-24T22:58:34.767Z,10.13
2018-08-24T23:01:02.292Z,9.97
2018-08-24T23:03:29.859Z,10.47
2018-08-24T23:05:57.441Z,9.70
2018-08-24T23:08:24.947Z,11.60
2018-08-24T23:10:52.453Z,10.03
2018-08-24T23:13:19.953Z,9.70
2018-08-24T23:15:47.460Z,11.70
2018-08-24T23:18:14.996Z,11.77
2018-08-24T23:20:42.575Z,9.90
2018-08-24T23:23:10.135Z,10.10
2018-08-24T23:25:37.623Z,10.83
2018-08-24T23:28:05.233Z,10.73
2018-08-24T23:30:32.848Z,9.80
2018-08-24T23:33:00.413Z,10.33
2018-08-24T23:35:27.907Z,8.63
2018-08-24T23:37:55.425Z,10.13
2018-08-24T23:40:22.903Z,10.10
2018-08-24T23:42:50.378Z,9.07
2018-08-24T23:45:17.966Z,10.80
2018-08-24T23:47:45.461Z,10.37
2018-08-24T23:50:13.054Z,12.07
2018-08-24T23:52:40.594Z,11.83
2018-08-24T23:55:08.096Z,11.50
2018-08-24T23:57:35.576Z,10.97
